sensor_id;sensor_type;location;lat;lon;timestamp;P1;durP1;ratioP1;P2;durP2;ratioP2
68212;SDS011;55035;47.792;8.724;2024-01-30T00:00:16;64.87;;;36.67;;
68212;SDS011;55035;47.792;8.724;2024-01-30T00:02:43;63.78;;;35.92;;
68212;SDS011;55035;47.792;8.724;2024-01-30T00:05:11;68.07;;;38.03;;
68212;SDS011;55035;47.792;8.724;2024-01-30T00:07:39;68.63;;;37.35;;
68212;SDS011;55035;47.792;8.724;2024-01-30T00:10:06;58.80;;;35.58;;
68212;SDS011;55035;47.792;8.724;2024-01-30T00:12:32;56.50;;;34.43;;
68212;SDS011;55035;47.792;8.724;2024-01-30T00:14:59;54.85;;;33.60;;
68212;SDS011;55035;47.792;8.724;2024-01-30T00:17:26;62.22;;;35.42;;
68212;SDS011;55035;47.792;8.724;2024-01-30T00:19:52;59.83;;;34.47;;
68212;SDS011;55035;47.792;8.724;2024-01-30T00:22:19;60.88;;;34.63;;
68212;SDS011;55035;47.792;8.724;2024-01-30T00:24:47;56.50;;;32.63;;
68212;SDS011;55035;47.792;8.724;2024-01-30T00:27:14;53.35;;;32.97;;
68212;SDS011;55035;47.792;8.724;2024-01-30T00:29:40;56.88;;;33.20;;
68212;SDS011;55035;47.792;8.724;2024-01-30T00:32:07;56.25;;;33.25;;
68212;SDS011;55035;47.792;8.724;2024-01-30T00:34:33;58.17;;;34.03;;
68212;SDS011;55035;47.792;8.724;2024-01-30T00:37:00;56.83;;;34.63;;
68212;SDS011;55035;47.792;8.724;2024-01-30T00:39:26;57.15;;;34.50;;
68212;SDS011;55035;47.792;8.724;2024-01-30T00:41:54;58.42;;;34.58;;
68212;SDS011;55035;47.792;8.724;2024-01-30T00:44:21;64.20;;;36.92;;
68212;SDS011;55035;47.792;8.724;2024-01-30T00:46:48;65.80;;;36.13;;
68212;SDS011;55035;47.792;8.724;2024-01-30T00:49:15;79.13;;;39.70;;
68212;SDS011;55035;47.792;8.724;2024-01-30T00:51:42;97.20;;;44.97;;
68212;SDS011;55035;47.792;8.724;2024-01-30T00:54:09;65.65;;;36.25;;
68212;SDS011;55035;47.792;8.724;2024-01-30T00:56:35;72.32;;;37.70;;
68212;SDS011;55035;47.792;8.724;2024-01-30T00:59:03;63.53;;;35.47;;
68212;SDS011;55035;47.792;8.724;2024-01-30T01:01:30;59.60;;;34.77;;
68212;SDS011;55035;47.792;8.724;2024-01-30T01:03:57;56.95;;;33.25;;
68212;SDS011;55035;47.792;8.724;2024-01-30T01:06:23;55.78;;;33.50;;
68212;SDS011;55035;47.792;8.724;2024-01-30T01:08:50;54.70;;;33.85;;
68212;SDS011;55035;47.792;8.724;2024-01-30T01:11:16;56.53;;;32.80;;
68212;SDS011;55035;47.792;8.724;2024-01-30T01:13:43;51.65;;;32.88;;
68212;SDS011;55035;47.792;8.724;2024-01-30T01:16:11;50.80;;;32.20;;
68212;SDS011;55035;47.792;8.724;2024-01-30T01:18:38;50.80;;;30.75;;
68212;SDS011;55035;47.792;8.724;2024-01-30T01:21:04;48.78;;;31.08;;
68212;SDS011;55035;47.792;8.724;2024-01-30T01:23:31;49.78;;;32.28;;
68212;SDS011;55035;47.792;8.724;2024-01-30T01:25:58;54.63;;;34.03;;
68212;SDS011;55035;47.792;8.724;2024-01-30T01:28:25;53.10;;;33.20;;
68212;SDS011;55035;47.792;8.724;2024-01-30T01:30:52;48.80;;;32.00;;
68212;SDS011;55035;47.792;8.724;2024-01-30T01:33:20;51.88;;;31.60;;
68212;SDS011;55035;47.792;8.724;2024-01-30T01:35:46;54.00;;;34.05;;
68212;SDS011;55035;47.792;8.724;2024-01-30T01:38:13;61.03;;;36.38;;
68212;SDS011;55035;47.792;8.724;2024-01-30T01:40:40;58.80;;;35.03;;
68212;SDS011;55035;47.792;8.724;2024-01-30T01:43:06;61.07;;;35.87;;
68212;SDS011;55035;47.792;8.724;2024-01-30T01:45:33;64.60;;;34.65;;
68212;SDS011;55035;47.792;8.724;2024-01-30T01:48:00;63.85;;;36.25;;
68212;SDS011;55035;47.792;8.724;2024-01-30T01:50:28;59.83;;;33.92;;
68212;SDS011;55035;47.792;8.724;2024-01-30T01:52:55;58.42;;;34.47;;
68212;SDS011;55035;47.792;8.724;2024-01-30T01:55:22;57.55;;;33.33;;
68212;SDS011;55035;47.792;8.724;2024-01-30T01:57:50;52.67;;;33.20;;
68212;SDS011;55035;47.792;8.724;2024-01-30T02:00:16;57.97;;;34.60;;
68212;SDS011;55035;47.792;8.724;2024-01-30T02:02:43;58.53;;;35.17;;
68212;SDS011;55035;47.792;8.724;2024-01-30T02:05:10;58.55;;;34.28;;
68212;SDS011;55035;47.792;8.724;2024-01-30T02:07:38;59.35;;;35.60;;
68212;SDS011;55035;47.792;8.724;2024-01-30T02:10:06;57.70;;;34.47;;
68212;SDS011;55035;47.792;8.724;2024-01-30T02:12:34;57.95;;;35.45;;
68212;SDS011;55035;47.792;8.724;2024-01-30T02:15:00;57.40;;;33.92;;
68212;SDS011;55035;47.792;8.724;2024-01-30T02:17:29;61.90;;;35.28;;
68212;SDS011;55035;47.792;8.724;2024-01-30T02:19:55;56.70;;;32.90;;
68212;SDS011;55035;47.792;8.724;2024-01-30T02:22:23;56.80;;;32.97;;
68212;SDS011;55035;47.792;8.724;2024-01-30T02:24:50;53.38;;;33.45;;
68212;SDS011;55035;47.792;8.724;2024-01-30T02:27:17;53.60;;;32.45;;
68212;SDS011;55035;47.792;8.724;2024-01-30T02:29:43;54.23;;;32.67;;
68212;SDS011;55035;47.792;8.724;2024-01-30T02:32:10;53.42;;;31.58;;
68212;SDS011;55035;47.792;8.724;2024-01-30T02:34:36;56.55;;;32.75;;
68212;SDS011;55035;47.792;8.724;2024-01-30T02:37:03;52.05;;;31.73;;
68212;SDS011;55035;47.792;8.724;2024-01-30T02:39:31;49.53;;;30.23;;
68212;SDS011;55035;47.792;8.724;2024-01-30T02:41:58;54.80;;;33.80;;
68212;SDS011;55035;47.792;8.724;2024-01-30T02:44:25;54.47;;;32.90;;
68212;SDS011;55035;47.792;8.724;2024-01-30T02:46:52;56.70;;;34.20;;
68212;SDS011;55035;47.792;8.724;2024-01-30T02:49:20;55.80;;;32.33;;
68212;SDS011;55035;47.792;8.724;2024-01-30T02:51:48;55.38;;;33.25;;
68212;SDS011;55035;47.792;8.724;2024-01-30T02:54:14;53.55;;;32.50;;
68212;SDS011;55035;47.792;8.724;2024-01-30T02:56:42;55.13;;;31.67;;
68212;SDS011;55035;47.792;8.724;2024-01-30T02:59:09;56.03;;;33.80;;
68212;SDS011;55035;47.792;8.724;2024-01-30T03:01:42;54.03;;;33.20;;
68212;SDS011;55035;47.792;8.724;2024-01-30T03:04:09;50.88;;;31.20;;
68212;SDS011;55035;47.792;8.724;2024-01-30T03:06:35;53.13;;;32.05;;
68212;SDS011;55035;47.792;8.724;2024-01-30T03:09:02;51.30;;;30.08;;
68212;SDS011;55035;47.792;8.724;2024-01-30T03:11:30;54.47;;;31.50;;
68212;SDS011;55035;47.792;8.724;2024-01-30T03:13:58;52.58;;;32.40;;
68212;SDS011;55035;47.792;8.724;2024-01-30T03:16:24;53.00;;;32.38;;
68212;SDS011;55035;47.792;8.724;2024-01-30T03:18:51;50.20;;;31.02;;
68212;SDS011;55035;47.792;8.724;2024-01-30T03:21:18;49.47;;;31.75;;
68212;SDS011;55035;47.792;8.724;2024-01-30T03:23:44;50.60;;;32.17;;
68212;SDS011;55035;47.792;8.724;2024-01-30T03:26:11;50.10;;;31.30;;
68212;SDS011;55035;47.792;8.724;2024-01-30T03:28:38;52.63;;;31.67;;
68212;SDS011;55035;47.792;8.724;2024-01-30T03:31:06;57.80;;;34.20;;
68212;SDS011;55035;47.792;8.724;2024-01-30T03:33:33;57.10;;;32.75;;
68212;SDS011;55035;47.792;8.724;2024-01-30T03:36:02;53.93;;;32.37;;
68212;SDS011;55035;47.792;8.724;2024-01-30T03:38:29;53.40;;;33.35;;
68212;SDS011;55035;47.792;8.724;2024-01-30T03:40:58;52.73;;;32.07;;
68212;SDS011;55035;47.792;8.724;2024-01-30T03:43:24;54.13;;;32.65;;
68212;SDS011;55035;47.792;8.724;2024-01-30T03:45:51;50.75;;;31.15;;
68212;SDS011;55035;47.792;8.724;2024-01-30T03:48:19;48.75;;;30.25;;
68212;SDS011;55035;47.792;8.724;2024-01-30T03:50:46;54.45;;;31.92;;
68212;SDS011;55035;47.792;8.724;2024-01-30T03:53:13;54.28;;;33.15;;
68212;SDS011;55035;47.792;8.724;2024-01-30T03:55:40;50.28;;;32.20;;
68212;SDS011;55035;47.792;8.724;2024-01-30T03:58:07;53.58;;;30.92;;
68212;SDS011;55035;47.792;8.724;2024-01-30T04:00:33;52.38;;;33.00;;
68212;SDS011;55035;47.792;8.724;2024-01-30T04:03:00;55.00;;;32.25;;
68212;SDS011;55035;47.792;8.724;2024-01-30T04:05:28;48.83;;;30.50;;
68212;SDS011;55035;47.792;8.724;2024-01-30T04:07:55;50.67;;;30.23;;
68212;SDS011;55035;47.792;8.724;2024-01-30T04:10:21;67.80;;;38.78;;
68212;SDS011;55035;47.792;8.724;2024-01-30T04:12:48;91.77;;;48.97;;
68212;SDS011;55035;47.792;8.724;2024-01-30T04:15:15;52.97;;;31.02;;
68212;SDS011;55035;47.792;8.724;2024-01-30T04:17:45;50.10;;;31.57;;
68212;SDS011;55035;47.792;8.724;2024-01-30T04:20:13;52.22;;;30.23;;
68212;SDS011;55035;47.792;8.724;2024-01-30T04:22:41;51.47;;;31.10;;
68212;SDS011;55035;47.792;8.724;2024-01-30T04:25:09;51.08;;;30.40;;
68212;SDS011;55035;47.792;8.724;2024-01-30T04:27:35;55.70;;;31.23;;
68212;SDS011;55035;47.792;8.724;2024-01-30T04:30:02;60.00;;;33.65;;
68212;SDS011;55035;47.792;8.724;2024-01-30T04:32:29;55.75;;;32.13;;
68212;SDS011;55035;47.792;8.724;2024-01-30T04:34:56;57.28;;;32.47;;
68212;SDS011;55035;47.792;8.724;2024-01-30T04:37:23;49.47;;;31.13;;
68212;SDS011;55035;47.792;8.724;2024-01-30T04:39:51;48.65;;;29.65;;
68212;SDS011;55035;47.792;8.724;2024-01-30T04:42:18;46.30;;;29.58;;
68212;SDS011;55035;47.792;8.724;2024-01-30T04:44:44;48.35;;;29.95;;
68212;SDS011;55035;47.792;8.724;2024-01-30T04:47:11;44.97;;;29.07;;
68212;SDS011;55035;47.792;8.724;2024-01-30T04:49:38;42.80;;;28.45;;
68212;SDS011;55035;47.792;8.724;2024-01-30T04:52:05;45.40;;;29.20;;
68212;SDS011;55035;47.792;8.724;2024-01-30T04:54:32;44.22;;;29.33;;
68212;SDS011;55035;47.792;8.724;2024-01-30T04:57:00;46.15;;;30.52;;
68212;SDS011;55035;47.792;8.724;2024-01-30T04:59:27;45.90;;;29.88;;
68212;SDS011;55035;47.792;8.724;2024-01-30T05:01:53;48.13;;;30.77;;
68212;SDS011;55035;47.792;8.724;2024-01-30T05:04:20;48.80;;;31.35;;
68212;SDS011;55035;47.792;8.724;2024-01-30T05:06:47;54.95;;;32.45;;
68212;SDS011;55035;47.792;8.724;2024-01-30T05:09:14;50.23;;;31.60;;
68212;SDS011;55035;47.792;8.724;2024-01-30T05:11:40;49.13;;;30.83;;
68212;SDS011;55035;47.792;8.724;2024-01-30T05:14:08;48.43;;;29.83;;
68212;SDS011;55035;47.792;8.724;2024-01-30T05:16:36;48.42;;;31.10;;
68212;SDS011;55035;47.792;8.724;2024-01-30T05:19:03;49.47;;;30.98;;
68212;SDS011;55035;47.792;8.724;2024-01-30T05:21:30;50.40;;;31.53;;
68212;SDS011;55035;47.792;8.724;2024-01-30T05:23:57;45.15;;;29.48;;
68212;SDS011;55035;47.792;8.724;2024-01-30T05:26:23;46.95;;;30.20;;
68212;SDS011;55035;47.792;8.724;2024-01-30T05:28:50;47.17;;;30.77;;
68212;SDS011;55035;47.792;8.724;2024-01-30T05:31:18;46.75;;;30.52;;
68212;SDS011;55035;47.792;8.724;2024-01-30T05:33:45;46.77;;;30.87;;
68212;SDS011;55035;47.792;8.724;2024-01-30T05:36:11;45.00;;;29.65;;
68212;SDS011;55035;47.792;8.724;2024-01-30T05:38:38;48.35;;;31.90;;
68212;SDS011;55035;47.792;8.724;2024-01-30T05:41:05;50.77;;;31.87;;
68212;SDS011;55035;47.792;8.724;2024-01-30T05:43:32;59.50;;;34.08;;
68212;SDS011;55035;47.792;8.724;2024-01-30T05:45:58;60.33;;;35.05;;
68212;SDS011;55035;47.792;8.724;2024-01-30T05:48:26;56.50;;;33.37;;
68212;SDS011;55035;47.792;8.724;2024-01-30T05:50:53;52.50;;;33.50;;
68212;SDS011;55035;47.792;8.724;2024-01-30T05:53:20;59.92;;;35.83;;
68212;SDS011;55035;47.792;8.724;2024-01-30T05:55:47;58.72;;;34.50;;
68212;SDS011;55035;47.792;8.724;2024-01-30T05:58:14;66.55;;;37.15;;
68212;SDS011;55035;47.792;8.724;2024-01-30T06:00:40;64.75;;;35.00;;
68212;SDS011;55035;47.792;8.724;2024-01-30T06:03:07;59.87;;;34.23;;
68212;SDS011;55035;47.792;8.724;2024-01-30T06:05:35;53.83;;;33.97;;
68212;SDS011;55035;47.792;8.724;2024-01-30T06:08:02;57.80;;;32.73;;
68212;SDS011;55035;47.792;8.724;2024-01-30T06:10:28;56.65;;;34.10;;
68212;SDS011;55035;47.792;8.724;2024-01-30T06:12:55;59.13;;;33.03;;
68212;SDS011;55035;47.792;8.724;2024-01-30T06:15:22;56.22;;;34.22;;
68212;SDS011;55035;47.792;8.724;2024-01-30T06:17:49;55.22;;;33.17;;
68212;SDS011;55035;47.792;8.724;2024-01-30T06:20:15;61.83;;;36.50;;
68212;SDS011;55035;47.792;8.724;2024-01-30T06:22:44;60.53;;;35.20;;
68212;SDS011;55035;47.792;8.724;2024-01-30T06:25:11;65.95;;;36.58;;
68212;SDS011;55035;47.792;8.724;2024-01-30T06:27:37;63.70;;;35.35;;
68212;SDS011;55035;47.792;8.724;2024-01-30T06:30:04;73.63;;;35.73;;
68212;SDS011;55035;47.792;8.724;2024-01-30T06:32:31;90.43;;;36.20;;
68212;SDS011;55035;47.792;8.724;2024-01-30T06:34:59;88.80;;;38.75;;
68212;SDS011;55035;47.792;8.724;2024-01-30T06:37:26;92.35;;;39.10;;
68212;SDS011;55035;47.792;8.724;2024-01-30T06:39:54;87.82;;;38.95;;
68212;SDS011;55035;47.792;8.724;2024-01-30T06:42:21;82.53;;;36.67;;
68212;SDS011;55035;47.792;8.724;2024-01-30T06:44:47;81.53;;;36.72;;
68212;SDS011;55035;47.792;8.724;2024-01-30T06:47:14;66.78;;;34.13;;
68212;SDS011;55035;47.792;8.724;2024-01-30T06:49:41;64.83;;;34.43;;
68212;SDS011;55035;47.792;8.724;2024-01-30T06:52:09;64.00;;;32.75;;
68212;SDS011;55035;47.792;8.724;2024-01-30T06:54:36;64.50;;;34.67;;
68212;SDS011;55035;47.792;8.724;2024-01-30T06:57:04;69.15;;;36.80;;
68212;SDS011;55035;47.792;8.724;2024-01-30T06:59:34;72.65;;;37.45;;
68212;SDS011;55035;47.792;8.724;2024-01-30T07:02:00;80.72;;;37.83;;
68212;SDS011;55035;47.792;8.724;2024-01-30T07:04:27;83.20;;;37.72;;
68212;SDS011;55035;47.792;8.724;2024-01-30T07:06:56;81.07;;;36.50;;
68212;SDS011;55035;47.792;8.724;2024-01-30T07:09:23;74.72;;;36.92;;
68212;SDS011;55035;47.792;8.724;2024-01-30T07:11:50;65.80;;;35.47;;
68212;SDS011;55035;47.792;8.724;2024-01-30T07:14:18;63.35;;;34.50;;
68212;SDS011;55035;47.792;8.724;2024-01-30T07:16:45;56.17;;;33.78;;
68212;SDS011;55035;47.792;8.724;2024-01-30T07:19:12;56.10;;;33.10;;
68212;SDS011;55035;47.792;8.724;2024-01-30T07:21:38;54.70;;;33.28;;
68212;SDS011;55035;47.792;8.724;2024-01-30T07:24:06;56.75;;;32.97;;
68212;SDS011;55035;47.792;8.724;2024-01-30T07:26:33;53.03;;;31.95;;
68212;SDS011;55035;47.792;8.724;2024-01-30T07:29:00;51.42;;;31.58;;
68212;SDS011;55035;47.792;8.724;2024-01-30T07:31:29;51.13;;;30.92;;
68212;SDS011;55035;47.792;8.724;2024-01-30T07:33:55;51.03;;;30.77;;
68212;SDS011;55035;47.792;8.724;2024-01-30T07:36:22;52.33;;;32.08;;
68212;SDS011;55035;47.792;8.724;2024-01-30T07:38:48;52.50;;;31.85;;
68212;SDS011;55035;47.792;8.724;2024-01-30T07:41:15;52.45;;;31.13;;
68212;SDS011;55035;47.792;8.724;2024-01-30T07:43:42;47.78;;;30.38;;
68212;SDS011;55035;47.792;8.724;2024-01-30T07:46:09;47.30;;;29.85;;
68212;SDS011;55035;47.792;8.724;2024-01-30T07:48:38;50.28;;;32.13;;
68212;SDS011;55035;47.792;8.724;2024-01-30T07:51:04;48.03;;;30.42;;
68212;SDS011;55035;47.792;8.724;2024-01-30T07:53:31;50.92;;;31.58;;
68212;SDS011;55035;47.792;8.724;2024-01-30T07:55:58;50.40;;;31.10;;
68212;SDS011;55035;47.792;8.724;2024-01-30T07:58:25;47.85;;;30.38;;
68212;SDS011;55035;47.792;8.724;2024-01-30T08:00:52;58.80;;;32.25;;
68212;SDS011;55035;47.792;8.724;2024-01-30T08:03:19;55.20;;;32.43;;
68212;SDS011;55035;47.792;8.724;2024-01-30T08:05:47;65.15;;;34.63;;
68212;SDS011;55035;47.792;8.724;2024-01-30T08:08:13;76.72;;;35.30;;
68212;SDS011;55035;47.792;8.724;2024-01-30T08:10:40;83.35;;;39.63;;
68212;SDS011;55035;47.792;8.724;2024-01-30T08:13:06;111.47;;;49.58;;
68212;SDS011;55035;47.792;8.724;2024-01-30T08:15:34;105.20;;;49.42;;
68212;SDS011;55035;47.792;8.724;2024-01-30T08:18:01;94.15;;;46.33;;
68212;SDS011;55035;47.792;8.724;2024-01-30T08:20:27;93.07;;;46.75;;
68212;SDS011;55035;47.792;8.724;2024-01-30T08:22:55;97.15;;;46.65;;
68212;SDS011;55035;47.792;8.724;2024-01-30T08:25:22;91.72;;;46.53;;
68212;SDS011;55035;47.792;8.724;2024-01-30T08:27:49;98.13;;;47.03;;
68212;SDS011;55035;47.792;8.724;2024-01-30T08:30:16;73.18;;;43.53;;
68212;SDS011;55035;47.792;8.724;2024-01-30T08:32:42;74.22;;;46.05;;
68212;SDS011;55035;47.792;8.724;2024-01-30T08:35:09;71.70;;;46.25;;
68212;SDS011;55035;47.792;8.724;2024-01-30T08:37:39;69.72;;;45.83;;
68212;SDS011;55035;47.792;8.724;2024-01-30T08:40:07;62.63;;;45.28;;
68212;SDS011;55035;47.792;8.724;2024-01-30T08:42:34;62.43;;;46.53;;
68212;SDS011;55035;47.792;8.724;2024-01-30T08:45:01;71.78;;;46.55;;
68212;SDS011;55035;47.792;8.724;2024-01-30T08:47:30;69.23;;;46.07;;
68212;SDS011;55035;47.792;8.724;2024-01-30T08:49:56;64.57;;;47.78;;
68212;SDS011;55035;47.792;8.724;2024-01-30T08:52:23;63.00;;;47.22;;
68212;SDS011;55035;47.792;8.724;2024-01-30T08:54:49;70.68;;;52.28;;
68212;SDS011;55035;47.792;8.724;2024-01-30T08:57:17;56.33;;;46.30;;
68212;SDS011;55035;47.792;8.724;2024-01-30T08:59:44;54.38;;;43.85;;
68212;SDS011;55035;47.792;8.724;2024-01-30T09:02:12;57.30;;;44.53;;
68212;SDS011;55035;47.792;8.724;2024-01-30T09:04:41;58.20;;;45.87;;
68212;SDS011;55035;47.792;8.724;2024-01-30T09:07:08;59.40;;;45.75;;
68212;SDS011;55035;47.792;8.724;2024-01-30T09:09:37;56.22;;;45.28;;
68212;SDS011;55035;47.792;8.724;2024-01-30T09:12:04;49.35;;;41.97;;
68212;SDS011;55035;47.792;8.724;2024-01-30T09:14:36;50.97;;;42.00;;
68212;SDS011;55035;47.792;8.724;2024-01-30T09:17:03;58.33;;;45.33;;
68212;SDS011;55035;47.792;8.724;2024-01-30T09:19:30;53.53;;;41.60;;
68212;SDS011;55035;47.792;8.724;2024-01-30T09:21:57;68.03;;;49.97;;
68212;SDS011;55035;47.792;8.724;2024-01-30T09:24:24;52.00;;;44.72;;
68212;SDS011;55035;47.792;8.724;2024-01-30T09:26:50;54.63;;;47.85;;
68212;SDS011;55035;47.792;8.724;2024-01-30T09:29:17;48.88;;;42.28;;
68212;SDS011;55035;47.792;8.724;2024-01-30T09:31:45;42.80;;;36.80;;
68212;SDS011;55035;47.792;8.724;2024-01-30T09:34:11;38.85;;;34.17;;
68212;SDS011;55035;47.792;8.724;2024-01-30T09:36:38;35.58;;;31.10;;
68212;SDS011;55035;47.792;8.724;2024-01-30T09:39:05;29.47;;;26.27;;
68212;SDS011;55035;47.792;8.724;2024-01-30T09:41:33;24.87;;;17.07;;
68212;SDS011;55035;47.792;8.724;2024-01-30T09:44:02;22.92;;;13.40;;
68212;SDS011;55035;47.792;8.724;2024-01-30T09:46:29;22.95;;;13.38;;
68212;SDS011;55035;47.792;8.724;2024-01-30T09:48:59;22.17;;;13.95;;
68212;SDS011;55035;47.792;8.724;2024-01-30T09:51:26;22.92;;;13.60;;
68212;SDS011;55035;47.792;8.724;2024-01-30T09:53:56;24.55;;;14.70;;
68212;SDS011;55035;47.792;8.724;2024-01-30T09:56:22;25.43;;;14.97;;
68212;SDS011;55035;47.792;8.724;2024-01-30T09:58:49;26.92;;;19.10;;
68212;SDS011;55035;47.792;8.724;2024-01-30T10:01:17;30.10;;;26.73;;
68212;SDS011;55035;47.792;8.724;2024-01-30T10:03:44;32.85;;;29.35;;
68212;SDS011;55035;47.792;8.724;2024-01-30T10:06:13;33.83;;;30.27;;
68212;SDS011;55035;47.792;8.724;2024-01-30T10:08:41;34.17;;;30.67;;
68212;SDS011;55035;47.792;8.724;2024-01-30T10:11:08;36.88;;;32.97;;
68212;SDS011;55035;47.792;8.724;2024-01-30T10:13:35;37.05;;;33.05;;
68212;SDS011;55035;47.792;8.724;2024-01-30T10:16:02;38.77;;;34.70;;
68212;SDS011;55035;47.792;8.724;2024-01-30T10:18:31;39.17;;;34.97;;
68212;SDS011;55035;47.792;8.724;2024-01-30T10:20:58;37.63;;;33.63;;
68212;SDS011;55035;47.792;8.724;2024-01-30T10:23:26;37.00;;;33.10;;
68212;SDS011;55035;47.792;8.724;2024-01-30T10:25:53;35.53;;;31.73;;
68212;SDS011;55035;47.792;8.724;2024-01-30T10:28:20;38.08;;;34.17;;
68212;SDS011;55035;47.792;8.724;2024-01-30T10:30:56;36.90;;;33.00;;
68212;SDS011;55035;47.792;8.724;2024-01-30T10:33:24;36.92;;;32.92;;
68212;SDS011;55035;47.792;8.724;2024-01-30T10:35:50;35.88;;;32.03;;
68212;SDS011;55035;47.792;8.724;2024-01-30T10:38:17;34.03;;;30.50;;
68212;SDS011;55035;47.792;8.724;2024-01-30T10:40:47;33.93;;;30.43;;
68212;SDS011;55035;47.792;8.724;2024-01-30T10:43:15;34.97;;;31.38;;
68212;SDS011;55035;47.792;8.724;2024-01-30T10:45:42;33.95;;;30.45;;
68212;SDS011;55035;47.792;8.724;2024-01-30T10:48:12;31.10;;;27.80;;
68212;SDS011;55035;47.792;8.724;2024-01-30T10:50:39;25.85;;;19.00;;
68212;SDS011;55035;47.792;8.724;2024-01-30T10:53:06;21.98;;;13.18;;
68212;SDS011;55035;47.792;8.724;2024-01-30T10:55:35;21.02;;;13.07;;
68212;SDS011;55035;47.792;8.724;2024-01-30T10:58:04;22.35;;;16.23;;
68212;SDS011;55035;47.792;8.724;2024-01-30T11:00:31;18.65;;;11.82;;
68212;SDS011;55035;47.792;8.724;2024-01-30T11:03:00;17.77;;;11.43;;
68212;SDS011;55035;47.792;8.724;2024-01-30T11:05:27;19.27;;;12.23;;
68212;SDS011;55035;47.792;8.724;2024-01-30T11:07:54;19.40;;;12.50;;
68212;SDS011;55035;47.792;8.724;2024-01-30T11:10:21;20.10;;;12.60;;
68212;SDS011;55035;47.792;8.724;2024-01-30T11:12:51;21.17;;;13.43;;
68212;SDS011;55035;47.792;8.724;2024-01-30T11:15:18;21.33;;;13.90;;
68212;SDS011;55035;47.792;8.724;2024-01-30T11:17:50;26.33;;;16.25;;
68212;SDS011;55035;47.792;8.724;2024-01-30T11:20:19;28.17;;;20.63;;
68212;SDS011;55035;47.792;8.724;2024-01-30T11:22:46;28.15;;;18.58;;
68212;SDS011;55035;47.792;8.724;2024-01-30T11:25:13;33.47;;;24.35;;
68212;SDS011;55035;47.792;8.724;2024-01-30T11:27:40;37.03;;;30.63;;
68212;SDS011;55035;47.792;8.724;2024-01-30T11:30:08;38.47;;;32.33;;
68212;SDS011;55035;47.792;8.724;2024-01-30T11:32:36;40.53;;;34.08;;
68212;SDS011;55035;47.792;8.724;2024-01-30T11:35:03;39.97;;;33.67;;
68212;SDS011;55035;47.792;8.724;2024-01-30T11:37:31;36.15;;;32.28;;
68212;SDS011;55035;47.792;8.724;2024-01-30T11:39:58;35.40;;;31.60;;
68212;SDS011;55035;47.792;8.724;2024-01-30T11:42:24;34.10;;;30.48;;
68212;SDS011;55035;47.792;8.724;2024-01-30T11:44:52;35.50;;;31.60;;
68212;SDS011;55035;47.792;8.724;2024-01-30T11:47:19;35.25;;;31.52;;
68212;SDS011;55035;47.792;8.724;2024-01-30T11:49:47;35.70;;;31.70;;
68212;SDS011;55035;47.792;8.724;2024-01-30T11:52:13;37.20;;;32.35;;
68212;SDS011;55035;47.792;8.724;2024-01-30T11:54:40;37.15;;;33.22;;
68212;SDS011;55035;47.792;8.724;2024-01-30T11:57:07;37.87;;;33.87;;
68212;SDS011;55035;47.792;8.724;2024-01-30T11:59:33;35.92;;;32.13;;
68212;SDS011;55035;47.792;8.724;2024-01-30T12:02:00;37.03;;;32.50;;
68212;SDS011;55035;47.792;8.724;2024-01-30T12:04:28;35.88;;;31.95;;
68212;SDS011;55035;47.792;8.724;2024-01-30T12:06:56;36.63;;;31.98;;
68212;SDS011;55035;47.792;8.724;2024-01-30T12:09:22;35.27;;;31.37;;
68212;SDS011;55035;47.792;8.724;2024-01-30T12:11:49;34.15;;;27.98;;
68212;SDS011;55035;47.792;8.724;2024-01-30T12:14:16;26.48;;;15.55;;
68212;SDS011;55035;47.792;8.724;2024-01-30T12:16:43;24.13;;;14.90;;
68212;SDS011;55035;47.792;8.724;2024-01-30T12:19:09;24.60;;;15.10;;
68212;SDS011;55035;47.792;8.724;2024-01-30T12:21:37;24.25;;;15.55;;
68212;SDS011;55035;47.792;8.724;2024-01-30T12:24:06;25.75;;;15.98;;
68212;SDS011;55035;47.792;8.724;2024-01-30T12:26:33;27.52;;;17.02;;
68212;SDS011;55035;47.792;8.724;2024-01-30T12:29:00;26.58;;;16.45;;
68212;SDS011;55035;47.792;8.724;2024-01-30T12:31:27;26.17;;;16.47;;
68212;SDS011;55035;47.792;8.724;2024-01-30T12:33:54;25.85;;;16.20;;
68212;SDS011;55035;47.792;8.724;2024-01-30T12:36:21;27.20;;;15.82;;
68212;SDS011;55035;47.792;8.724;2024-01-30T12:38:48;26.63;;;16.40;;
68212;SDS011;55035;47.792;8.724;2024-01-30T12:41:16;26.38;;;15.55;;
68212;SDS011;55035;47.792;8.724;2024-01-30T12:43:44;26.00;;;15.75;;
68212;SDS011;55035;47.792;8.724;2024-01-30T12:46:10;26.67;;;16.02;;
68212;SDS011;55035;47.792;8.724;2024-01-30T12:48:37;25.88;;;16.30;;
68212;SDS011;55035;47.792;8.724;2024-01-30T12:51:04;27.00;;;16.20;;
68212;SDS011;55035;47.792;8.724;2024-01-30T12:53:31;27.17;;;16.40;;
68212;SDS011;55035;47.792;8.724;2024-01-30T12:55:57;26.52;;;15.57;;
68212;SDS011;55035;47.792;8.724;2024-01-30T12:58:25;26.20;;;15.48;;
68212;SDS011;55035;47.792;8.724;2024-01-30T13:00:52;25.65;;;15.52;;
68212;SDS011;55035;47.792;8.724;2024-01-30T13:03:19;27.08;;;15.50;;
68212;SDS011;55035;47.792;8.724;2024-01-30T13:05:46;26.50;;;16.03;;
68212;SDS011;55035;47.792;8.724;2024-01-30T13:08:13;27.63;;;16.15;;
68212;SDS011;55035;47.792;8.724;2024-01-30T13:10:40;28.08;;;16.25;;
68212;SDS011;55035;47.792;8.724;2024-01-30T13:13:06;27.30;;;16.50;;
68212;SDS011;55035;47.792;8.724;2024-01-30T13:15:36;26.90;;;16.10;;
68212;SDS011;55035;47.792;8.724;2024-01-30T13:18:03;26.60;;;15.60;;
68212;SDS011;55035;47.792;8.724;2024-01-30T13:20:30;26.60;;;16.03;;
68212;SDS011;55035;47.792;8.724;2024-01-30T13:22:57;25.98;;;15.90;;
68212;SDS011;55035;47.792;8.724;2024-01-30T13:25:24;26.57;;;15.73;;
68212;SDS011;55035;47.792;8.724;2024-01-30T13:27:51;26.67;;;15.75;;
68212;SDS011;55035;47.792;8.724;2024-01-30T13:30:18;26.45;;;16.77;;
68212;SDS011;55035;47.792;8.724;2024-01-30T13:32:46;25.52;;;15.75;;
68212;SDS011;55035;47.792;8.724;2024-01-30T13:35:13;25.77;;;15.30;;
68212;SDS011;55035;47.792;8.724;2024-01-30T13:37:39;24.60;;;14.52;;
68212;SDS011;55035;47.792;8.724;2024-01-30T13:40:07;24.07;;;14.70;;
68212;SDS011;55035;47.792;8.724;2024-01-30T13:42:35;23.27;;;14.15;;
68212;SDS011;55035;47.792;8.724;2024-01-30T13:45:01;24.25;;;14.65;;
68212;SDS011;55035;47.792;8.724;2024-01-30T13:47:28;22.63;;;14.18;;
68212;SDS011;55035;47.792;8.724;2024-01-30T13:49:56;23.17;;;14.17;;
68212;SDS011;55035;47.792;8.724;2024-01-30T13:52:23;21.17;;;14.35;;
68212;SDS011;55035;47.792;8.724;2024-01-30T13:54:49;21.20;;;14.20;;
68212;SDS011;55035;47.792;8.724;2024-01-30T13:57:16;20.77;;;13.70;;
68212;SDS011;55035;47.792;8.724;2024-01-30T13:59:42;20.80;;;13.60;;
68212;SDS011;55035;47.792;8.724;2024-01-30T14:02:09;22.02;;;14.30;;
68212;SDS011;55035;47.792;8.724;2024-01-30T14:04:36;21.67;;;13.88;;
68212;SDS011;55035;47.792;8.724;2024-01-30T14:07:05;22.38;;;14.25;;
68212;SDS011;55035;47.792;8.724;2024-01-30T14:09:32;22.63;;;14.68;;
68212;SDS011;55035;47.792;8.724;2024-01-30T14:11:59;22.70;;;14.60;;
68212;SDS011;55035;47.792;8.724;2024-01-30T14:14:26;24.77;;;15.40;;
68212;SDS011;55035;47.792;8.724;2024-01-30T14:16:52;24.70;;;15.17;;
68212;SDS011;55035;47.792;8.724;2024-01-30T14:19:19;24.58;;;15.27;;